Time;durP1;ratioP1;P1;durP2;ratioP2;P2;SDS_P1;SDS_P2;PMS_P1;PMS_P2;Temp;Humidity;BMP_temperature;BMP_pressure;BME280_temperature;BME280_humidity;BME280_pressure;Samples;Min_cycle;Max_cycle;Signal;HPM_P1;HPM_P2
2022/03/11 00:01:52;;;;;;;17.37;8.80;;;;;;;-1.55;58.94;102021.50;5000894;28;20049;-74
2022/03/11 00:04:17;;;;;;;21.90;9.70;;;;;;;-1.58;59.93;102018.72;4998129;28;20412;-74
2022/03/11 00:06:43;;;;;;;19.03;9.27;;;;;;;-1.61;59.64;102022.00;5000251;28;20038;-74
2022/03/11 00:09:08;;;;;;;19.53;10.20;;;;;;;-1.66;61.20;102019.91;4999773;28;20030;-73
2022/03/11 00:11:33;;;;;;;20.13;9.00;;;;;;;-1.65;59.51;102019.09;4998540;28;20511;-74
2022/03/11 00:14:01;;;;;;;21.17;9.93;;;;;;;-1.68;59.99;102019.78;5000922;28;20045;-74
2022/03/11 00:16:26;;;;;;;21.07;10.47;;;;;;;-1.69;60.77;102018.00;4996613;28;20053;-74
2022/03/11 00:18:52;;;;;;;17.33;9.10;;;;;;;-1.71;60.24;102014.41;4999319;28;20042;-74
2022/03/11 00:21:17;;;;;;;18.60;8.97;;;;;;;-1.75;60.16;102019.31;4997337;28;20041;-74
2022/03/11 00:23:42;;;;;;;20.90;9.33;;;;;;;-1.78;60.05;102012.25;4995850;28;20411;-74
2022/03/11 00:26:09;;;;;;;20.40;9.63;;;;;;;-1.83;61.09;102005.84;5000838;28;20052;-74
2022/03/11 00:28:36;;;;;;;19.73;9.27;;;;;;;-1.87;61.09;102004.72;4994227;28;20044;-74
2022/03/11 00:31:04;;;;;;;19.77;10.23;;;;;;;-1.88;60.75;102004.66;4999759;28;20066;-74
2022/03/11 00:33:30;;;;;;;19.60;10.50;;;;;;;-1.88;61.39;102010.72;4997725;28;20031;-74
2022/03/11 00:35:55;;;;;;;19.13;9.40;;;;;;;-1.90;61.25;101999.34;5000459;28;20506;-75
2022/03/11 00:38:20;;;;;;;18.83;9.87;;;;;;;-1.96;61.56;102004.13;4998042;28;20042;-73
2022/03/11 00:40:46;;;;;;;19.90;10.43;;;;;;;-1.99;62.04;102001.34;5013836;28;20552;-74
2022/03/11 00:43:11;;;;;;;19.37;8.93;;;;;;;-2.00;61.83;101997.81;4999998;28;20091;-74
2022/03/11 00:45:36;;;;;;;17.23;8.80;;;;;;;-2.02;61.37;101998.50;4996955;28;20046;-74
2022/03/11 00:48:02;;;;;;;16.20;8.73;;;;;;;-2.04;61.64;101997.53;4998129;28;20042;-74
2022/03/11 00:50:27;;;;;;;18.50;9.73;;;;;;;-2.10;61.51;102003.16;4999126;28;20042;-73
2022/03/11 00:52:52;;;;;;;16.97;10.30;;;;;;;-2.13;62.08;102000.38;5000002;28;20053;-73
2022/03/11 00:55:18;;;;;;;22.27;9.90;;;;;;;-2.14;61.31;102000.28;5029123;28;20034;-73
2022/03/11 00:57:45;;;;;;;15.97;8.73;;;;;;;-2.17;61.64;101994.88;5101160;27;20113;-75
2022/03/11 01:00:11;;;;;;;17.53;9.13;;;;;;;-2.19;61.93;101991.31;4998106;28;20117;-75
2022/03/11 01:02:38;;;;;;;19.70;9.17;;;;;;;-2.19;61.65;101991.31;5003924;28;20738;-74
2022/03/11 01:05:05;;;;;;;22.77;9.97;;;;;;;-2.19;61.53;101986.13;5012496;28;20428;-74
2022/03/11 01:07:30;;;;;;;18.53;9.10;;;;;;;-2.17;61.28;101981.94;4997550;28;20064;-74
2022/03/11 01:09:56;;;;;;;22.83;10.03;;;;;;;-2.15;60.89;101972.59;4999253;28;20065;-74
2022/03/11 01:12:21;;;;;;;17.03;9.37;;;;;;;-2.14;61.04;101984.75;4998788;28;20136;-73
2022/03/11 01:14:47;;;;;;;16.53;8.73;;;;;;;-2.18;60.61;101987.91;4996424;28;20033;-74
2022/03/11 01:17:12;;;;;;;17.80;8.83;;;;;;;-2.21;60.78;101986.00;4979663;28;20030;-74
2022/03/11 01:19:38;;;;;;;24.03;10.30;;;;;;;-2.25;60.29;101979.75;4999530;28;20069;-74
2022/03/11 01:22:04;;;;;;;19.07;8.87;;;;;;;-2.31;60.15;101981.88;4998374;28;20121;-75
2022/03/11 01:24:30;;;;;;;17.93;9.27;;;;;;;-2.37;60.91;101978.91;4996392;28;20038;-75
2022/03/11 01:26:55;;;;;;;16.80;9.70;;;;;;;-2.44;60.60;101974.09;5000048;28;20041;-74
2022/03/11 01:29:21;;;;;;;17.17;9.53;;;;;;;-2.46;60.78;101975.69;4997563;28;20046;-74
2022/03/11 01:31:49;;;;;;;18.57;9.03;;;;;;;-2.49;60.45;101970.28;5005603;28;20023;-75
2022/03/11 01:34:14;;;;;;;18.40;8.20;;;;;;;-2.49;60.86;101966.03;4996447;28;20037;-74
2022/03/11 01:36:39;;;;;;;17.83;8.97;;;;;;;-2.49;60.70;101970.28;4999867;28;20042;-75
2022/03/11 01:39:04;;;;;;;18.10;8.60;;;;;;;-2.51;60.71;101961.53;4997099;28;20608;-75
2022/03/11 01:41:31;;;;;;;18.40;9.33;;;;;;;-2.53;60.68;101958.84;4998565;28;20407;-75
2022/03/11 01:44:06;;;;;;;18.10;8.73;;;;;;;-2.57;61.15;101958.50;4994011;28;20035;-74
2022/03/11 01:46:32;;;;;;;19.43;9.87;;;;;;;-2.61;61.40;101953.94;4997081;28;20042;-74
2022/03/11 01:48:58;;;;;;;18.40;9.17;;;;;;;-2.66;61.45;101956.19;5014060;28;20030;-74
2022/03/11 01:51:25;;;;;;;18.27;9.70;;;;;;;-2.69;61.42;101962.03;4999785;28;20117;-74
2022/03/11 01:53:52;;;;;;;18.13;9.07;;;;;;;-2.74;61.70;101947.91;5000175;28;20042;-74
2022/03/11 01:56:18;;;;;;;18.20;9.00;;;;;;;-2.78;61.39;101958.81;4982776;28;20045;-74
2022/03/11 01:58:50;;;;;;;17.37;8.63;;;;;;;-2.82;61.24;101949.06;5001241;28;20037;-74
2022/03/11 02:01:17;;;;;;;17.00;9.13;;;;;;;-2.85;61.51;101947.94;5036284;28;20124;-74
2022/03/11 02:03:43;;;;;;;18.67;8.97;;;;;;;-2.90;61.50;101947.63;5011269;28;20046;-74
2022/03/11 02:06:08;;;;;;;19.50;9.60;;;;;;;-2.93;61.97;101945.72;5001959;28;20042;-74
2022/03/11 02:08:35;;;;;;;19.50;9.53;;;;;;;-2.96;61.55;101942.00;5013463;28;20034;-74
2022/03/11 02:11:02;;;;;;;19.20;9.60;;;;;;;-3.00;62.63;101943.47;5014707;28;20433;-74
2022/03/11 02:13:27;;;;;;;19.40;9.30;;;;;;;-3.04;62.67;101945.72;4999811;28;20049;-74
2022/03/11 02:15:53;;;;;;;18.50;8.93;;;;;;;-3.05;62.22;101943.94;5002014;28;20046;-74
2022/03/11 02:18:19;;;;;;;19.20;8.87;;;;;;;-3.11;62.11;101937.56;5001411;28;20077;-74
2022/03/11 02:20:46;;;;;;;21.90;9.63;;;;;;;-3.11;62.66;101934.97;5000206;28;20072;-73
2022/03/11 02:23:14;;;;;;;19.83;9.57;;;;;;;-3.12;62.75;101937.44;5000539;28;20545;-74
2022/03/11 02:25:42;;;;;;;20.63;10.00;;;;;;;-3.14;62.64;101939.03;5000707;28;20050;-74
2022/03/11 02:28:07;;;;;;;21.77;10.20;;;;;;;-3.17;62.11;101934.53;5034542;28;20075;-74
2022/03/11 02:30:33;;;;;;;16.60;8.67;;;;;;;-3.18;62.89;101937.91;5011164;28;20034;-74
2022/03/11 02:32:58;;;;;;;20.00;9.33;;;;;;;-3.20;62.84;101929.13;5006346;28;20072;-74
2022/03/11 02:35:24;;;;;;;21.70;9.73;;;;;;;-3.21;62.52;101932.53;5001650;28;20044;-74
2022/03/11 02:37:49;;;;;;;18.43;8.70;;;;;;;-3.22;61.98;101934.97;5016282;28;20088;-74
2022/03/11 02:40:14;;;;;;;22.53;9.57;;;;;;;-3.23;62.16;101933.19;5000104;28;20040;-74
2022/03/11 02:42:40;;;;;;;19.93;9.60;;;;;;;-3.24;62.20;101936.56;5014456;28;20047;-74
2022/03/11 02:45:06;;;;;;;19.53;9.60;;;;;;;-3.28;61.91;101921.63;5007074;28;20037;-74
2022/03/11 02:47:32;;;;;;;18.17;9.60;;;;;;;-3.30;62.23;101924.13;5002816;28;20037;-73
2022/03/11 02:49:58;;;;;;;19.47;9.07;;;;;;;-3.30;62.67;101926.72;5027374;28;20042;-74
2022/03/11 02:52:25;;;;;;;21.20;9.13;;;;;;;-3.33;62.04;101924.81;4999086;28;20519;-75
2022/03/11 02:54:51;;;;;;;19.43;9.03;;;;;;;-3.35;61.98;101928.06;5001815;28;20131;-74
2022/03/11 02:57:16;;;;;;;24.87;9.17;;;;;;;-3.38;62.59;101927.81;5008219;28;20034;-75
2022/03/11 02:59:45;;;;;;;17.53;8.70;;;;;;;-3.37;62.69;101929.63;5020583;28;20061;-74
2022/03/11 03:02:12;;;;;;;18.63;9.10;;;;;;;-3.35;62.84;101930.66;5001431;28;20147;-74
2022/03/11 03:04:37;;;;;;;18.67;8.87;;;;;;;-3.35;62.80;101923.78;4999559;28;20476;-75
2022/03/11 03:07:03;;;;;;;24.03;11.40;;;;;;;-3.33;62.00;101921.28;4999341;28;20045;-75
2022/03/11 03:09:28;;;;;;;19.10;8.83;;;;;;;-3.35;62.22;101916.03;5001262;28;20061;-75
2022/03/11 03:11:54;;;;;;;20.00;9.93;;;;;;;-3.36;62.61;101924.56;5024425;28;20034;-75
2022/03/11 03:14:19;;;;;;;18.90;8.50;;;;;;;-3.37;62.09;101915.03;5004393;28;20130;-75
2022/03/11 03:16:45;;;;;;;19.83;9.03;;;;;;;-3.40;62.17;101921.66;4999749;28;20034;-75
2022/03/11 03:19:13;;;;;;;20.03;9.67;;;;;;;-3.41;62.81;101917.28;5000019;28;20056;-74
2022/03/11 03:21:38;;;;;;;22.90;9.87;;;;;;;-3.43;62.85;101908.50;5001499;28;20547;-74
2022/03/11 03:24:05;;;;;;;20.67;9.87;;;;;;;-3.45;63.26;101913.59;4998684;28;20034;-73
2022/03/11 03:26:31;;;;;;;21.20;8.77;;;;;;;-3.47;62.60;101914.25;5001611;28;20045;-74
2022/03/11 03:28:56;;;;;;;19.10;8.90;;;;;;;-3.52;62.75;101914.81;4999534;28;20038;-73
2022/03/11 03:31:21;;;;;;;20.70;8.97;;;;;;;-3.53;63.55;101914.72;5016312;28;20045;-74
2022/03/11 03:33:47;;;;;;;20.57;10.03;;;;;;;-3.55;62.95;101914.59;4998553;28;20030;-74
2022/03/11 03:36:13;;;;;;;19.03;9.80;;;;;;;-3.58;63.09;101914.38;5002408;28;20074;-74
2022/03/11 03:38:39;;;;;;;21.03;9.43;;;;;;;-3.61;63.03;101903.84;5018309;28;20034;-74
2022/03/11 03:41:04;;;;;;;16.73;8.93;;;;;;;-3.62;63.57;101912.34;5015482;28;20045;-74
2022/03/11 03:43:32;;;;;;;17.83;8.83;;;;;;;-3.65;63.30;101909.53;5016953;28;20033;-74
2022/03/11 03:45:57;;;;;;;19.60;9.90;;;;;;;-3.67;63.06;101910.22;5052807;28;20031;-74
2022/03/11 03:48:23;;;;;;;17.00;9.47;;;;;;;-3.72;63.97;101907.31;5000137;28;20038;-74
2022/03/11 03:50:49;;;;;;;20.70;9.47;;;;;;;-3.72;63.50;101909.91;5015499;28;20030;-75
2022/03/11 03:53:14;;;;;;;20.90;9.10;;;;;;;-3.77;63.87;101903.50;4998125;28;20125;-74
2022/03/11 03:55:40;;;;;;;17.47;8.87;;;;;;;-3.79;63.51;101903.38;5013466;28;20034;-74
2022/03/11 03:58:05;;;;;;;19.93;9.27;;;;;;;-3.81;64.18;101906.63;4996270;28;20039;-74
2022/03/11 04:00:31;;;;;;;18.43;8.57;;;;;;;-3.83;64.09;101897.88;5001561;28;20040;-75
2022/03/11 04:02:56;;;;;;;19.50;9.47;;;;;;;-3.87;63.68;101906.19;5000362;28;20038;-75
2022/03/11 04:05:21;;;;;;;19.27;9.57;;;;;;;-3.89;64.28;101905.19;4998086;28;20092;-75
2022/03/11 04:07:49;;;;;;;19.63;9.33;;;;;;;-3.93;63.73;101909.22;5000432;28;20042;-74
2022/03/11 04:10:15;;;;;;;19.37;9.43;;;;;;;-3.93;64.28;101900.56;4999557;28;20423;-75
2022/03/11 04:12:41;;;;;;;20.47;9.73;;;;;;;-3.94;64.64;101902.25;4997286;28;20034;-75
2022/03/11 04:15:07;;;;;;;21.87;9.07;;;;;;;-3.89;64.15;101894.84;4998523;28;20052;-75
2022/03/11 04:17:33;;;;;;;19.23;8.67;;;;;;;-3.88;64.59;101906.97;5006200;28;20114;-75
2022/03/11 04:19:59;;;;;;;21.10;10.00;;;;;;;-3.88;64.71;101894.06;5008847;28;20109;-75
2022/03/11 04:22:25;;;;;;;19.80;10.43;;;;;;;-3.86;64.26;101902.81;4998565;28;20042;-75
2022/03/11 04:24:51;;;;;;;23.30;10.93;;;;;;;-3.84;64.88;101901.25;5015849;28;20064;-74
2022/03/11 04:27:16;;;;;;;22.40;11.27;;;;;;;-3.83;63.87;101895.31;4999390;28;20038;-75
2022/03/11 04:29:41;;;;;;;23.00;10.80;;;;;;;-3.82;64.94;101902.28;4997142;28;20050;-75
2022/03/11 04:32:07;;;;;;;21.40;10.83;;;;;;;-3.80;64.75;101895.50;4999169;28;20425;-76
2022/03/11 04:34:36;;;;;;;22.97;11.30;;;;;;;-3.77;64.15;101895.78;4997705;28;20037;-75
2022/03/11 04:37:02;;;;;;;21.60;10.87;;;;;;;-3.78;64.88;101893.94;4997722;28;20038;-76
2022/03/11 04:39:27;;;;;;;20.43;10.17;;;;;;;-3.77;63.77;101896.66;4999773;28;20063;-76
2022/03/11 04:41:56;;;;;;;25.47;11.33;;;;;;;-3.77;64.38;101888.91;5000718;28;20491;-76
2022/03/11 04:44:22;;;;;;;24.53;10.97;;;;;;;-3.79;64.55;101893.06;5003267;28;20053;-76
2022/03/11 04:46:48;;;;;;;22.13;10.83;;;;;;;-3.78;64.18;101888.78;5021061;28;20050;-76
2022/03/11 04:49:13;;;;;;;23.43;11.23;;;;;;;-3.76;63.58;101882.97;5004582;28;20040;-76
2022/03/11 04:51:39;;;;;;;22.63;11.93;;;;;;;-3.75;63.67;101883.84;5001135;28;20038;-77
2022/03/11 04:54:08;;;;;;;24.67;12.00;;;;;;;-3.75;63.85;101882.19;5002438;28;20490;-76
2022/03/11 04:56:34;;;;;;;22.73;10.60;;;;;;;-3.74;64.24;101885.66;4997461;28;20109;-76
2022/03/11 04:58:59;;;;;;;25.77;11.10;;;;;;;-3.73;63.95;101882.28;4997404;28;20469;-76
2022/03/11 05:01:27;;;;;;;20.73;10.63;;;;;;;-3.71;64.29;101885.00;5003911;28;20035;-76
2022/03/11 05:03:53;;;;;;;21.30;10.80;;;;;;;-3.68;63.36;101891.25;5034572;27;20088;-76
2022/03/11 05:06:18;;;;;;;21.80;10.70;;;;;;;-3.67;63.21;101882.72;5000968;28;20045;-76
2022/03/11 05:08:44;;;;;;;23.07;10.47;;;;;;;-3.67;63.23;101890.47;4999383;28;20175;-76
2022/03/11 05:11:10;;;;;;;22.40;11.03;;;;;;;-3.68;63.27;101888.69;5020126;28;20089;-76
2022/03/11 05:13:35;;;;;;;23.07;10.10;;;;;;;-3.67;62.95;101890.47;5018852;28;20163;-75
2022/03/11 05:16:00;;;;;;;23.23;10.13;;;;;;;-3.68;63.20;101891.25;5000165;28;20480;-75
2022/03/11 05:18:26;;;;;;;20.30;9.67;;;;;;;-3.66;63.13;101896.53;4996908;28;20038;-76
2022/03/11 05:20:52;;;;;;;20.33;10.43;;;;;;;-3.65;62.73;101891.47;4997706;28;20117;-76
2022/03/11 05:23:17;;;;;;;25.23;11.47;;;;;;;-3.63;63.12;101895.06;5012808;28;20022;-76
2022/03/11 05:25:43;;;;;;;19.60;10.10;;;;;;;-3.60;62.47;101891.81;5013726;28;20098;-76
2022/03/11 05:28:08;;;;;;;22.00;10.07;;;;;;;-3.57;62.56;101889.47;5023960;28;20062;-76
2022/03/11 05:30:35;;;;;;;20.77;10.30;;;;;;;-3.54;61.87;101906.09;5011052;28;20038;-76
2022/03/11 05:33:00;;;;;;;20.43;9.97;;;;;;;-3.51;61.16;101902.81;5011623;28;20037;-75
2022/03/11 05:35:26;;;;;;;22.57;11.07;;;;;;;-3.48;61.32;101894.38;5010789;28;20036;-76
2022/03/11 05:37:51;;;;;;;18.57;9.23;;;;;;;-3.47;61.74;101898.78;5005818;28;20038;-76
2022/03/11 05:40:17;;;;;;;18.77;9.70;;;;;;;-3.44;61.04;101899.00;5005194;28;20099;-75
2022/03/11 05:42:43;;;;;;;19.87;9.97;;;;;;;-3.42;61.10;101906.06;5030521;28;20041;-75
2022/03/11 05:45:09;;;;;;;18.33;10.03;;;;;;;-3.38;60.83;101907.16;5019450;28;20091;-76
2022/03/11 05:47:35;;;;;;;19.03;9.97;;;;;;;-3.37;60.96;101909.88;5000066;28;20038;-76
2022/03/11 05:50:00;;;;;;;19.70;10.33;;;;;;;-3.33;60.35;101908.38;5017875;28;20038;-76
2022/03/11 05:52:25;;;;;;;21.07;10.77;;;;;;;-3.31;60.84;101904.25;5023153;28;20040;-76
2022/03/11 05:54:53;;;;;;;21.83;11.57;;;;;;;-3.28;59.98;101917.38;5031455;28;20080;-75
2022/03/11 05:57:18;;;;;;;24.17;9.80;;;;;;;-3.27;60.80;101913.13;5013887;28;20038;-75
2022/03/11 05:59:44;;;;;;;20.73;10.07;;;;;;;-3.24;60.61;101916.81;5012321;28;20044;-75
2022/03/11 06:02:09;;;;;;;20.87;10.07;;;;;;;-3.20;60.69;101908.47;5017116;28;20030;-75
2022/03/11 06:04:35;;;;;;;25.23;10.50;;;;;;;-3.16;60.28;101914.78;5047155;28;20497;-75
2022/03/11 06:07:00;;;;;;;20.10;9.80;;;;;;;-3.12;60.62;101925.44;5009205;28;20175;-75
2022/03/11 06:09:25;;;;;;;16.57;8.60;;;;;;;-3.10;60.12;101921.25;4999454;28;20488;-75
2022/03/11 06:11:53;;;;;;;19.37;9.47;;;;;;;-3.04;60.44;101930.22;5002140;28;20420;-75
2022/03/11 06:14:22;;;;;;;18.93;9.07;;;;;;;-2.99;60.31;101928.88;5003445;28;20078;-75
2022/03/11 06:16:47;;;;;;;19.10;9.83;;;;;;;-2.93;59.98;101929.31;5015086;28;20492;-75
2022/03/11 06:19:13;;;;;;;20.87;10.93;;;;;;;-2.88;59.80;101934.03;5007641;28;20129;-75
2022/03/11 06:21:38;;;;;;;19.70;9.67;;;;;;;-2.82;59.95;101930.06;5011887;28;20035;-75
2022/03/11 06:24:04;;;;;;;20.40;9.33;;;;;;;-2.75;59.57;101935.78;5019305;28;20468;-75
2022/03/11 06:26:29;;;;;;;16.97;9.23;;;;;;;-2.69;58.98;101931.03;5016164;28;20385;-75
2022/03/11 06:28:54;;;;;;;19.83;10.23;;;;;;;-2.62;58.91;101934.03;4998842;28;20125;-75
2022/03/11 06:31:20;;;;;;;20.77;10.17;;;;;;;-2.56;59.07;101932.78;5002144;28;20085;-75
2022/03/11 06:33:46;;;;;;;24.63;10.77;;;;;;;-2.47;59.06;101927.34;5006005;28;20026;-76
2022/03/11 06:36:11;;;;;;;28.50;13.57;;;;;;;-2.36;59.64;101930.66;5020906;28;20031;-75
2022/03/11 06:38:36;;;;;;;23.33;10.80;;;;;;;-2.28;57.95;101930.41;4999339;28;20468;-75
2022/03/11 06:41:03;;;;;;;20.30;9.70;;;;;;;-2.21;58.64;101926.53;5017360;28;20045;-75
2022/03/11 06:43:28;;;;;;;18.50;9.57;;;;;;;-2.13;58.49;101932.22;5017647;28;20399;-75
2022/03/11 06:45:54;;;;;;;17.60;8.83;;;;;;;-2.09;57.95;101926.47;5045804;28;20043;-75
2022/03/11 06:48:21;;;;;;;16.57;8.30;;;;;;;-2.02;57.66;101933.81;5001366;28;20057;-75
2022/03/11 06:50:47;;;;;;;19.80;9.03;;;;;;;-1.95;56.60;101930.88;5002164;28;20041;-75
2022/03/11 06:53:13;;;;;;;18.43;9.27;;;;;;;-1.87;56.50;101929.69;4999310;28;20046;-75
2022/03/11 06:55:39;;;;;;;21.67;9.87;;;;;;;-1.81;56.46;101931.78;5023809;28;20091;-75
2022/03/11 06:58:04;;;;;;;18.63;9.03;;;;;;;-1.74;55.83;101925.31;5020665;28;20516;-75
2022/03/11 07:00:29;;;;;;;18.27;9.30;;;;;;;-1.67;56.12;101928.41;5002198;28;20038;-75
2022/03/11 07:02:55;;;;;;;18.17;8.70;;;;;;;-1.61;55.66;101923.63;5010732;28;20043;-75
2022/03/11 07:05:20;;;;;;;20.87;7.47;;;;;;;-1.53;55.07;101926.72;4999663;28;20135;-75
2022/03/11 07:07:46;;;;;;;18.10;8.00;;;;;;;-1.48;54.71;101929.63;5004381;28;20035;-75
2022/03/11 07:10:16;;;;;;;18.20;8.77;;;;;;;-1.41;54.77;101919.75;4999090;28;20030;-75
2022/03/11 07:12:41;;;;;;;17.70;7.60;;;;;;;-1.32;54.68;101916.84;4998947;28;20043;-75
2022/03/11 07:15:07;;;;;;;15.80;8.53;;;;;;;-1.23;54.77;101922.63;5043114;28;20085;-75
2022/03/11 07:17:33;;;;;;;17.00;7.90;;;;;;;-1.17;54.40;101922.13;5023569;28;20087;-75
2022/03/11 07:19:59;;;;;;;26.30;13.27;;;;;;;-1.04;54.65;101923.78;5005813;28;20030;-75
2022/03/11 07:22:25;;;;;;;15.33;7.93;;;;;;;-0.97;52.76;101921.69;5018592;28;20095;-75
2022/03/11 07:24:51;;;;;;;17.53;7.67;;;;;;;-0.83;53.70;101924.25;4998525;28;20038;-75
2022/03/11 07:27:16;;;;;;;14.70;6.73;;;;;;;-0.75;52.05;101921.31;4998650;28;20547;-75
2022/03/11 07:29:42;;;;;;;17.03;6.87;;;;;;;-0.65;51.47;101925.38;5013015;28;20030;-75
2022/03/11 07:32:12;;;;;;;14.00;6.13;;;;;;;-0.56;52.06;101925.03;4996587;28;20077;-75
2022/03/11 07:34:38;;;;;;;17.27;6.97;;;;;;;-0.47;51.50;101930.78;5000661;28;20034;-75
2022/03/11 07:37:03;;;;;;;14.03;6.80;;;;;;;-0.38;50.39;101922.66;4995769;28;20034;-75
2022/03/11 07:39:29;;;;;;;16.03;7.27;;;;;;;-0.28;49.70;101927.59;5001320;28;20046;-75
2022/03/11 07:41:54;;;;;;;16.77;7.27;;;;;;;-0.16;50.05;101928.31;4998221;28;20070;-75
2022/03/11 07:44:20;;;;;;;15.97;6.77;;;;;;;-0.06;49.34;101920.28;5000790;28;20034;-75
2022/03/11 07:46:46;;;;;;;16.90;6.93;;;;;;;0.03;49.27;101921.63;5011733;28;20491;-75
2022/03/11 07:49:12;;;;;;;13.47;6.67;;;;;;;0.13;48.53;101916.16;5040979;28;20045;-75
2022/03/11 07:51:37;;;;;;;12.73;6.17;;;;;;;0.17;46.51;101929.41;5016934;28;20069;-75
2022/03/11 07:54:03;;;;;;;14.07;5.47;;;;;;;0.30;47.01;101914.56;4989149;28;20515;-75
2022/03/11 07:56:28;;;;;;;11.53;6.17;;;;;;;0.41;46.98;101924.75;5029654;28;20034;-75
2022/03/11 07:58:56;;;;;;;11.67;6.27;;;;;;;0.51;47.17;101922.69;4997443;28;20066;-75
2022/03/11 08:01:23;;;;;;;13.80;6.33;;;;;;;0.63;46.36;101913.88;5000951;28;20069;-75
2022/03/11 08:03:48;;;;;;;11.23;6.13;;;;;;;0.72;45.87;101916.09;4998376;28;20472;-75
2022/03/11 08:06:13;;;;;;;15.50;7.90;;;;;;;0.80;45.37;101920.00;4999628;28;20045;-75
2022/03/11 08:08:39;;;;;;;16.67;6.87;;;;;;;0.89;45.96;101924.81;4999917;28;20037;-75
2022/03/11 08:11:05;;;;;;;11.35;5.45;;;;;;;0.95;45.12;101925.16;4997877;28;20038;-75
2022/03/11 08:13:33;;;;;;;16.15;6.13;;;;;;;1.08;44.88;101913.72;5001414;28;20077;-75
2022/03/11 08:15:59;;;;;;;13.63;6.65;;;;;;;1.27;45.49;101913.00;4999943;28;20030;-75
2022/03/11 08:18:25;;;;;;;12.60;5.95;;;;;;;1.29;43.81;101914.00;4999931;28;20510;-75
2022/03/11 08:20:50;;;;;;;12.05;6.63;;;;;;;1.43;44.82;101914.72;4998092;28;20052;-75
2022/03/11 08:23:15;;;;;;;12.25;6.07;;;;;;;1.53;44.15;101909.19;5000656;28;20025;-76
2022/03/11 08:25:41;;;;;;;12.60;6.00;;;;;;;1.62;44.18;101908.78;4998486;28;20238;-75
2022/03/11 08:28:10;;;;;;;13.95;6.13;;;;;;;1.73;43.78;101903.31;4997594;28;20598;-75
2022/03/11 08:30:39;;;;;;;12.50;5.78;;;;;;;1.80;42.68;101896.72;4996883;28;20038;-75
2022/03/11 08:33:05;;;;;;;10.05;6.30;;;;;;;1.91;43.78;101897.25;4996364;28;20037;-75
2022/03/11 08:35:30;;;;;;;10.88;5.75;;;;;;;2.04;43.23;101894.44;5037101;27;20042;-76
2022/03/11 08:37:56;;;;;;;13.80;7.55;;;;;;;2.14;42.22;101894.09;5003148;28;20034;-75
2022/03/11 08:40:23;;;;;;;15.10;7.80;;;;;;;2.34;43.31;101896.81;5017682;28;20041;-76
2022/03/11 08:42:50;;;;;;;21.35;10.50;;;;;;;2.52;44.47;101895.09;5006702;28;20042;-76
2022/03/11 08:45:16;;;;;;;11.23;6.22;;;;;;;2.73;41.82;101897.84;4999308;28;20041;-76
2022/03/11 08:47:42;;;;;;;9.15;4.97;;;;;;;2.86;41.02;101912.34;5070236;28;20044;-75
2022/03/11 08:50:08;;;;;;;13.82;6.05;;;;;;;2.89;39.60;101904.66;5022696;28;20419;-75
2022/03/11 08:52:34;;;;;;;9.02;5.18;;;;;;;2.99;40.25;101912.09;5004487;28;20046;-75
2022/03/11 08:55:00;;;;;;;13.85;5.00;;;;;;;3.03;38.68;101908.78;5013493;28;20033;-75
2022/03/11 08:57:25;;;;;;;27.58;5.85;;;;;;;3.08;38.77;101907.28;4998653;28;20110;-76
2022/03/11 08:59:51;;;;;;;10.18;5.15;;;;;;;3.19;37.77;101904.28;5024300;28;20701;-76
2022/03/11 09:02:17;;;;;;;11.43;5.50;;;;;;;3.39;38.11;101919.16;5009388;28;20503;-76
2022/03/11 09:04:42;;;;;;;13.43;5.68;;;;;;;3.41;37.68;101914.91;5011379;28;20061;-75
2022/03/11 09:07:07;;;;;;;11.02;6.43;;;;;;;3.51;38.76;101918.78;4998431;28;20481;-76
2022/03/11 09:09:33;;;;;;;10.93;5.55;;;;;;;3.55;37.55;101919.84;4998045;28;20042;-76
2022/03/11 09:11:59;;;;;;;10.30;5.85;;;;;;;3.60;38.22;101918.31;5015141;28;20069;-76
2022/03/11 09:14:24;;;;;;;9.27;5.35;;;;;;;3.68;37.41;101917.81;4997144;28;20053;-75
2022/03/11 09:16:50;;;;;;;10.07;5.75;;;;;;;3.77;37.20;101922.56;4999157;28;20026;-75
2022/03/11 09:19:15;;;;;;;10.55;5.45;;;;;;;3.83;36.14;101911.50;5013829;28;20066;-75
2022/03/11 09:21:41;;;;;;;9.32;5.25;;;;;;;3.93;36.13;101909.34;5000153;28;20041;-75
2022/03/11 09:24:07;;;;;;;9.98;5.25;;;;;;;4.03;37.19;101909.72;5004018;28;20038;-75
2022/03/11 09:26:32;;;;;;;8.95;5.15;;;;;;;4.10;36.43;101914.41;4999261;28;20026;-75
2022/03/11 09:28:59;;;;;;;12.68;5.30;;;;;;;4.20;36.24;101908.72;4998470;28;20030;-76
2022/03/11 09:31:24;;;;;;;10.32;5.60;;;;;;;4.25;36.03;101907.19;4997491;28;20496;-76
2022/03/11 09:33:49;;;;;;;10.68;5.68;;;;;;;4.28;35.19;101923.00;4999790;28;20061;-75
2022/03/11 09:36:15;;;;;;;13.27;5.68;;;;;;;4.40;35.31;101914.75;4996042;28;20049;-75
2022/03/11 09:38:40;;;;;;;15.43;5.80;;;;;;;4.37;34.55;101922.47;5012875;28;20111;-75
2022/03/11 09:41:08;;;;;;;10.18;5.32;;;;;;;4.44;34.59;101918.41;5012705;28;20038;-76
2022/03/11 09:43:35;;;;;;;9.88;5.20;;;;;;;4.42;33.48;101920.97;4999685;28;20038;-76
2022/03/11 09:46:01;;;;;;;11.13;4.40;;;;;;;4.45;32.63;101912.34;4997006;28;20407;-76
2022/03/11 09:48:27;;;;;;;9.93;5.63;;;;;;;4.56;33.59;101913.69;4998619;28;20120;-76
2022/03/11 09:50:54;;;;;;;10.90;5.25;;;;;;;4.60;32.99;101915.59;4997393;28;20053;-76
2022/03/11 09:53:19;;;;;;;9.90;5.28;;;;;;;4.65;33.03;101919.28;4996727;28;20087;-75
2022/03/11 09:55:45;;;;;;;11.27;5.57;;;;;;;4.74;34.24;101911.81;5000176;28;20527;-76
2022/03/11 09:58:10;;;;;;;8.73;5.10;;;;;;;4.82;33.97;101913.00;4997452;28;20060;-76
2022/03/11 10:00:36;;;;;;;12.23;5.50;;;;;;;4.79;32.96;101905.03;4997924;28;20038;-76
2022/03/11 10:03:03;;;;;;;9.10;5.45;;;;;;;4.92;33.81;101921.19;4998954;28;20038;-76
2022/03/11 10:05:49;;;;;;;12.73;5.35;;;;;;;4.99;33.34;101910.16;4995646;28;20041;-75
2022/03/11 10:08:28;;;;;;;8.45;4.90;;;;;;;5.07;33.84;101913.94;4999441;28;20034;-76
2022/03/11 10:10:54;;;;;;;10.45;5.75;;;;;;;5.12;33.79;101912.41;4998451;28;20557;-76
2022/03/11 10:13:19;;;;;;;8.77;5.28;;;;;;;5.21;33.36;101907.53;4998805;28;20027;-76
2022/03/11 10:15:44;;;;;;;8.80;4.65;;;;;;;5.23;32.69;101895.38;5002654;28;20094;-76
2022/03/11 10:18:10;;;;;;;10.32;5.78;;;;;;;5.31;33.81;101902.63;5000614;28;20035;-76
2022/03/11 10:20:36;;;;;;;9.77;5.45;;;;;;;5.45;33.69;101898.81;5016251;28;20060;-76
2022/03/11 10:23:08;;;;;;;10.68;6.05;;;;;;;5.53;33.25;101901.66;5002854;28;20049;-76
2022/03/11 10:25:34;;;;;;;20.10;9.65;;;;;;;5.52;34.27;101903.41;5000359;28;20038;-76
2022/03/11 10:28:12;;;;;;;15.27;6.93;;;;;;;5.64;32.20;101901.25;5000982;28;20599;-75
2022/03/11 10:30:39;;;;;;;14.13;5.88;;;;;;;5.69;32.67;101894.44;4999789;28;20389;-76
2022/03/11 10:33:10;;;;;;;8.80;5.53;;;;;;;5.80;33.14;101896.53;5000780;28;20041;-76
2022/03/11 10:35:47;;;;;;;9.32;5.47;;;;;;;5.96;32.99;101892.75;5002136;28;20037;-75
2022/03/11 10:38:15;;;;;;;10.63;5.30;;;;;;;6.01;31.26;101884.22;5020180;28;20143;-76
2022/03/11 10:40:48;;;;;;;9.68;4.97;;;;;;;6.11;32.06;101888.94;5016919;28;20042;-75
2022/03/11 10:43:17;;;;;;;12.40;5.88;;;;;;;6.12;30.81;101898.56;4999808;28;20037;-76
2022/03/11 10:45:48;;;;;;;10.50;5.28;;;;;;;6.21;30.30;101891.84;5029718;28;20052;-75
2022/03/11 10:48:15;;;;;;;8.73;5.03;;;;;;;6.18;31.12;101887.38;5011781;28;20046;-75
2022/03/11 10:50:40;;;;;;;11.30;6.07;;;;;;;6.28;31.63;101888.59;5010784;28;20038;-75
2022/03/11 10:53:07;;;;;;;10.02;4.97;;;;;;;6.39;31.89;101884.59;5004585;28;20038;-75
2022/03/11 10:55:38;;;;;;;10.10;5.72;;;;;;;6.42;29.79;101882.09;5021239;28;20066;-75
2022/03/11 10:58:05;;;;;;;12.68;5.75;;;;;;;6.42;30.21;101876.84;5035268;28;20057;-75
2022/03/11 11:00:36;;;;;;;12.43;6.70;;;;;;;6.43;29.93;101868.13;5030090;28;20034;-75
2022/03/11 11:03:03;;;;;;;11.48;5.55;;;;;;;6.55;29.83;101865.03;5004437;28;20404;-75
2022/03/11 11:05:30;;;;;;;7.88;4.75;;;;;;;6.61;28.89;101867.81;5027202;28;20038;-75
2022/03/11 11:07:57;;;;;;;8.98;4.68;;;;;;;6.74;29.28;101864.72;5000269;28;20053;-75
2022/03/11 11:10:25;;;;;;;7.13;4.10;;;;;;;6.73;27.60;101859.44;5003194;28;20053;-76
2022/03/11 11:12:51;;;;;;;8.30;4.82;;;;;;;6.78;28.25;101850.84;5035595;28;20039;-76
2022/03/11 11:15:17;;;;;;;10.13;5.13;;;;;;;6.86;27.93;101856.34;5001200;28;20384;-76